sensor_id;sensor_type;location;lat;lon;timestamp;pressure;altitude;pressure_sealevel;temperature;humidity
18201;BME280;9226;47.858;9.594;2023-10-13T00:01:18;95441.22;;;20.04;45.26
18201;BME280;9226;47.858;9.594;2023-10-13T00:03:44;95444.09;;;20.03;45.26
18201;BME280;9226;47.858;9.594;2023-10-13T00:06:09;95449.84;;;20.00;45.46
18201;BME280;9226;47.858;9.594;2023-10-13T00:08:35;95458.97;;;19.99;45.29
18201;BME280;9226;47.858;9.594;2023-10-13T00:11:02;95454.78;;;19.96;45.25
18201;BME280;9226;47.858;9.594;2023-10-13T00:13:28;95451.81;;;19.91;45.10
18201;BME280;9226;47.858;9.594;2023-10-13T00:16:00;95453.81;;;19.89;45.08
18201;BME280;9226;47.858;9.594;2023-10-13T00:18:30;95453.34;;;19.85;45.05
18201;BME280;9226;47.858;9.594;2023-10-13T00:21:02;95450.66;;;19.85;45.08
18201;BME280;9226;47.858;9.594;2023-10-13T00:23:38;95454.72;;;19.81;45.38
18201;BME280;9226;47.858;9.594;2023-10-13T00:26:04;95447.06;;;19.78;45.43
18201;BME280;9226;47.858;9.594;2023-10-13T00:28:34;95449.06;;;19.76;45.54
18201;BME280;9226;47.858;9.594;2023-10-13T00:31:23;95446.06;;;19.71;45.32
18201;BME280;9226;47.858;9.594;2023-10-13T00:33:48;95446.59;;;19.66;45.28
18201;BME280;9226;47.858;9.594;2023-10-13T00:36:16;95441.56;;;19.63;45.31
18201;BME280;9226;47.858;9.594;2023-10-13T00:38:44;95435.53;;;19.61;45.26
18201;BME280;9226;47.858;9.594;2023-10-13T00:41:14;95432.19;;;19.59;45.20
18201;BME280;9226;47.858;9.594;2023-10-13T00:43:48;95429.19;;;19.54;45.18
18201;BME280;9226;47.858;9.594;2023-10-13T00:46:38;95432.06;;;19.52;45.05
18201;BME280;9226;47.858;9.594;2023-10-13T00:49:04;95428.38;;;19.53;45.26
18201;BME280;9226;47.858;9.594;2023-10-13T00:51:30;95432.94;;;19.53;45.25
18201;BME280;9226;47.858;9.594;2023-10-13T00:54:13;95429.56;;;19.51;45.15
18201;BME280;9226;47.858;9.594;2023-10-13T00:56:42;95424.34;;;19.49;45.22
18201;BME280;9226;47.858;9.594;2023-10-13T00:59:30;95428.56;;;19.52;44.99
18201;BME280;9226;47.858;9.594;2023-10-13T01:02:01;95437.44;;;19.52;44.72
18201;BME280;9226;47.858;9.594;2023-10-13T01:04:47;95439.31;;;19.52;44.37
18201;BME280;9226;47.858;9.594;2023-10-13T01:07:13;95426.88;;;19.51;44.21
18201;BME280;9226;47.858;9.594;2023-10-13T01:09:42;95426.69;;;19.52;44.43
18201;BME280;9226;47.858;9.594;2023-10-13T01:12:13;95427.53;;;19.53;44.53
18201;BME280;9226;47.858;9.594;2023-10-13T01:14:39;95421.31;;;19.52;44.11
18201;BME280;9226;47.858;9.594;2023-10-13T01:17:05;95421.13;;;19.54;44.31
18201;BME280;9226;47.858;9.594;2023-10-13T01:19:36;95419.47;;;19.53;44.07
18201;BME280;9226;47.858;9.594;2023-10-13T01:22:07;95411.03;;;19.56;44.17
18201;BME280;9226;47.858;9.594;2023-10-13T01:24:33;95414.75;;;19.55;44.40
18201;BME280;9226;47.858;9.594;2023-10-13T01:27:05;95423.00;;;19.53;44.51
18201;BME280;9226;47.858;9.594;2023-10-13T01:29:43;95407.66;;;19.54;44.48
18201;BME280;9226;47.858;9.594;2023-10-13T01:32:15;95403.31;;;19.53;44.51
18201;BME280;9226;47.858;9.594;2023-10-13T01:34:40;95401.66;;;19.52;44.58
18201;BME280;9226;47.858;9.594;2023-10-13T01:37:11;95394.41;;;19.52;44.54
18201;BME280;9226;47.858;9.594;2023-10-13T01:39:36;95397.34;;;19.43;44.52
18201;BME280;9226;47.858;9.594;2023-10-13T01:42:02;95397.06;;;19.38;44.51
18201;BME280;9226;47.858;9.594;2023-10-13T01:44:27;95393.03;;;19.33;44.82
18201;BME280;9226;47.858;9.594;2023-10-13T01:47:00;95388.56;;;19.26;45.29
18201;BME280;9226;47.858;9.594;2023-10-13T01:49:32;95381.38;;;19.18;45.57
18201;BME280;9226;47.858;9.594;2023-10-13T01:52:06;95387.16;;;19.15;45.35
18201;BME280;9226;47.858;9.594;2023-10-13T01:54:33;95385.00;;;19.10;45.64
18201;BME280;9226;47.858;9.594;2023-10-13T01:56:58;95383.84;;;19.05;45.78
18201;BME280;9226;47.858;9.594;2023-10-13T01:59:25;95380.69;;;19.01;45.83
18201;BME280;9226;47.858;9.594;2023-10-13T02:01:52;95383.91;;;18.96;45.96
18201;BME280;9226;47.858;9.594;2023-10-13T02:04:20;95387.50;;;18.89;45.96
18201;BME280;9226;47.858;9.594;2023-10-13T02:06:46;95386.47;;;18.81;46.52
18201;BME280;9226;47.858;9.594;2023-10-13T02:09:12;95393.94;;;18.71;46.91
18201;BME280;9226;47.858;9.594;2023-10-13T02:11:39;95388.78;;;18.61;47.24
18201;BME280;9226;47.858;9.594;2023-10-13T02:14:04;95390.50;;;18.54;47.34
18201;BME280;9226;47.858;9.594;2023-10-13T02:16:30;95394.06;;;18.47;47.91
18201;BME280;9226;47.858;9.594;2023-10-13T02:18:57;95388.53;;;18.40;48.05
18201;BME280;9226;47.858;9.594;2023-10-13T02:21:23;95381.19;;;18.34;48.17
18201;BME280;9226;47.858;9.594;2023-10-13T02:23:56;95391.31;;;18.15;50.08
18201;BME280;9226;47.858;9.594;2023-10-13T02:26:26;95384.97;;;18.08;49.54
18201;BME280;9226;47.858;9.594;2023-10-13T02:29:02;95388.88;;;17.97;50.37
18201;BME280;9226;47.858;9.594;2023-10-13T02:31:30;95383.56;;;17.48;53.25
18201;BME280;9226;47.858;9.594;2023-10-13T02:33:56;95382.53;;;17.41;53.35
18201;BME280;9226;47.858;9.594;2023-10-13T02:36:22;95381.03;;;17.46;52.64
18201;BME280;9226;47.858;9.594;2023-10-13T02:38:49;95387.72;;;17.50;52.33
18201;BME280;9226;47.858;9.594;2023-10-13T02:41:19;95382.91;;;17.46;52.82
18201;BME280;9226;47.858;9.594;2023-10-13T02:43:52;95386.75;;;17.43;52.60
18201;BME280;9226;47.858;9.594;2023-10-13T02:46:22;95387.06;;;17.40;52.85
18201;BME280;9226;47.858;9.594;2023-10-13T02:48:49;95391.09;;;17.36;52.72
18201;BME280;9226;47.858;9.594;2023-10-13T02:51:23;95381.03;;;17.30;52.77
18201;BME280;9226;47.858;9.594;2023-10-13T02:54:01;95381.72;;;17.24;52.78
18201;BME280;9226;47.858;9.594;2023-10-13T02:56:34;95383.22;;;17.18;53.03
18201;BME280;9226;47.858;9.594;2023-10-13T02:59:01;95385.56;;;17.13;53.16
18201;BME280;9226;47.858;9.594;2023-10-13T03:01:32;95380.00;;;17.06;53.01
18201;BME280;9226;47.858;9.594;2023-10-13T03:03:59;95378.03;;;17.00;53.29
18201;BME280;9226;47.858;9.594;2023-10-13T03:06:25;95382.88;;;16.96;53.29
18201;BME280;9226;47.858;9.594;2023-10-13T03:09:04;95378.31;;;16.89;53.72
18201;BME280;9226;47.858;9.594;2023-10-13T03:11:43;95380.34;;;16.87;53.99
18201;BME280;9226;47.858;9.594;2023-10-13T03:14:14;95375.28;;;16.83;54.06
18201;BME280;9226;47.858;9.594;2023-10-13T03:16:50;95376.47;;;16.81;53.60
18201;BME280;9226;47.858;9.594;2023-10-13T03:19:15;95370.25;;;16.80;53.28
18201;BME280;9226;47.858;9.594;2023-10-13T03:21:44;95375.97;;;16.86;52.97
18201;BME280;9226;47.858;9.594;2023-10-13T03:24:12;95374.97;;;16.87;53.38
18201;BME280;9226;47.858;9.594;2023-10-13T03:26:39;95372.81;;;16.90;53.30
18201;BME280;9226;47.858;9.594;2023-10-13T03:29:09;95374.66;;;16.90;53.01
18201;BME280;9226;47.858;9.594;2023-10-13T03:31:39;95374.31;;;16.93;52.74
18201;BME280;9226;47.858;9.594;2023-10-13T03:34:07;95370.66;;;16.94;52.44
18201;BME280;9226;47.858;9.594;2023-10-13T03:36:37;95378.84;;;16.92;52.67
18201;BME280;9226;47.858;9.594;2023-10-13T03:39:26;95361.91;;;16.92;52.47
18201;BME280;9226;47.858;9.594;2023-10-13T03:41:57;95357.25;;;16.94;52.24
18201;BME280;9226;47.858;9.594;2023-10-13T03:44:23;95363.28;;;16.96;52.24
18201;BME280;9226;47.858;9.594;2023-10-13T03:46:48;95357.91;;;16.96;52.02
18201;BME280;9226;47.858;9.594;2023-10-13T03:49:15;95350.53;;;16.98;51.63
18201;BME280;9226;47.858;9.594;2023-10-13T03:51:46;95354.75;;;17.00;51.60
18201;BME280;9226;47.858;9.594;2023-10-13T03:54:13;95347.19;;;17.04;51.60
18201;BME280;9226;47.858;9.594;2023-10-13T03:56:42;95346.19;;;17.05;51.13
18201;BME280;9226;47.858;9.594;2023-10-13T03:59:10;95348.53;;;17.08;51.18
18201;BME280;9226;47.858;9.594;2023-10-13T04:01:43;95345.53;;;17.11;51.31
18201;BME280;9226;47.858;9.594;2023-10-13T04:04:09;95339.31;;;17.11;50.92
18201;BME280;9226;47.858;9.594;2023-10-13T04:06:39;95340.00;;;17.13;50.70
18201;BME280;9226;47.858;9.594;2023-10-13T04:09:25;95340.66;;;17.15;50.76
18201;BME280;9226;47.858;9.594;2023-10-13T04:12:03;95339.84;;;17.14;50.74
18201;BME280;9226;47.858;9.594;2023-10-13T04:14:30;95347.88;;;17.14;51.00
18201;BME280;9226;47.858;9.594;2023-10-13T04:17:14;95336.13;;;17.15;51.34
18201;BME280;9226;47.858;9.594;2023-10-13T04:19:40;95336.13;;;17.15;51.22
18201;BME280;9226;47.858;9.594;2023-10-13T04:22:24;95334.66;;;17.13;50.91
18201;BME280;9226;47.858;9.594;2023-10-13T04:25:32;95335.81;;;17.10;50.80
18201;BME280;9226;47.858;9.594;2023-10-13T04:28:08;95333.28;;;17.09;50.35
18201;BME280;9226;47.858;9.594;2023-10-13T04:30:50;95327.94;;;17.09;50.47
18201;BME280;9226;47.858;9.594;2023-10-13T04:36:03;95329.78;;;17.08;50.81
18201;BME280;9226;47.858;9.594;2023-10-13T04:38:45;95324.75;;;17.05;50.65
18201;BME280;9226;47.858;9.594;2023-10-13T04:41:40;95324.59;;;17.07;51.09
18201;BME280;9226;47.858;9.594;2023-10-13T04:44:17;95322.41;;;17.10;50.87
18201;BME280;9226;47.858;9.594;2023-10-13T04:47:06;95320.72;;;17.09;50.91
18201;BME280;9226;47.858;9.594;2023-10-13T04:49:39;95319.06;;;17.08;50.82
18201;BME280;9226;47.858;9.594;2023-10-13T04:52:05;95313.22;;;17.05;51.00
18201;BME280;9226;47.858;9.594;2023-10-13T04:54:33;95312.34;;;17.04;51.33
18201;BME280;9226;47.858;9.594;2023-10-13T04:57:13;95313.72;;;17.00;51.02
18201;BME280;9226;47.858;9.594;2023-10-13T04:59:49;95312.03;;;16.99;51.16
18201;BME280;9226;47.858;9.594;2023-10-13T05:02:33;95312.84;;;16.99;51.22
18201;BME280;9226;47.858;9.594;2023-10-13T05:05:14;95308.31;;;16.92;51.31
18201;BME280;9226;47.858;9.594;2023-10-13T05:07:44;95312.84;;;16.91;51.34
18201;BME280;9226;47.858;9.594;2023-10-13T05:10:28;95316.53;;;16.90;50.98
18201;BME280;9226;47.858;9.594;2023-10-13T05:13:13;95313.19;;;16.88;51.29
18201;BME280;9226;47.858;9.594;2023-10-13T05:15:57;95309.69;;;16.88;51.25
18201;BME280;9226;47.858;9.594;2023-10-13T05:18:41;95314.34;;;16.86;51.14
18201;BME280;9226;47.858;9.594;2023-10-13T05:21:25;95308.47;;;16.82;50.92
18201;BME280;9226;47.858;9.594;2023-10-13T05:24:09;95313.97;;;16.80;51.14
18201;BME280;9226;47.858;9.594;2023-10-13T05:26:53;95322.03;;;16.80;51.16
18201;BME280;9226;47.858;9.594;2023-10-13T05:29:46;95319.00;;;16.75;51.05
18201;BME280;9226;47.858;9.594;2023-10-13T05:32:31;95320.69;;;16.76;50.97
18201;BME280;9226;47.858;9.594;2023-10-13T05:35:16;95317.50;;;16.73;51.15
18201;BME280;9226;47.858;9.594;2023-10-13T05:38:01;95319.34;;;16.72;51.25
18201;BME280;9226;47.858;9.594;2023-10-13T05:40:56;95323.66;;;16.65;51.43
18201;BME280;9226;47.858;9.594;2023-10-13T05:43:41;95325.69;;;16.71;51.48
18201;BME280;9226;47.858;9.594;2023-10-13T05:46:25;95330.38;;;16.69;51.61
18201;BME280;9226;47.858;9.594;2023-10-13T05:48:54;95323.34;;;16.68;51.44
18201;BME280;9226;47.858;9.594;2023-10-13T05:51:23;95325.34;;;16.66;51.50
18201;BME280;9226;47.858;9.594;2023-10-13T05:54:09;95334.38;;;16.65;51.50
18201;BME280;9226;47.858;9.594;2023-10-13T05:56:50;95327.69;;;16.61;51.56
18201;BME280;9226;47.858;9.594;2023-10-13T05:59:36;95332.41;;;16.67;51.46
18201;BME280;9226;47.858;9.594;2023-10-13T06:02:22;95331.22;;;16.70;51.43
18201;BME280;9226;47.858;9.594;2023-10-13T06:05:11;95331.41;;;16.76;51.39
18201;BME280;9226;47.858;9.594;2023-10-13T06:07:55;95330.59;;;16.84;51.22
18201;BME280;9226;47.858;9.594;2023-10-13T06:10:42;95327.94;;;16.92;50.91
18201;BME280;9226;47.858;9.594;2023-10-13T06:13:27;95327.09;;;17.08;50.91
18201;BME280;9226;47.858;9.594;2023-10-13T06:16:14;95326.41;;;17.23;50.99
18201;BME280;9226;47.858;9.594;2023-10-13T06:18:58;95323.72;;;17.39;51.05
18201;BME280;9226;47.858;9.594;2023-10-13T06:21:43;95327.38;;;17.54;50.42
18201;BME280;9226;47.858;9.594;2023-10-13T06:24:28;95328.34;;;17.70;50.46
18201;BME280;9226;47.858;9.594;2023-10-13T06:27:12;95320.97;;;17.88;50.44
18201;BME280;9226;47.858;9.594;2023-10-13T06:29:57;95327.59;;;18.01;49.36
18201;BME280;9226;47.858;9.594;2023-10-13T06:32:23;95331.28;;;18.08;48.94
18201;BME280;9226;47.858;9.594;2023-10-13T06:34:55;95332.25;;;18.15;49.11
18201;BME280;9226;47.858;9.594;2023-10-13T06:37:31;95337.22;;;18.35;48.97
18201;BME280;9226;47.858;9.594;2023-10-13T06:40:00;95328.69;;;18.54;48.40
18201;BME280;9226;47.858;9.594;2023-10-13T06:42:33;95335.81;;;18.70;47.82
18201;BME280;9226;47.858;9.594;2023-10-13T06:45:08;95341.13;;;18.78;47.24
18201;BME280;9226;47.858;9.594;2023-10-13T06:47:37;95335.22;;;18.83;47.30
18201;BME280;9226;47.858;9.594;2023-10-13T06:50:14;95334.56;;;18.81;47.32
18201;BME280;9226;47.858;9.594;2023-10-13T06:52:44;95337.56;;;18.94;47.34
18201;BME280;9226;47.858;9.594;2023-10-13T06:55:10;95342.84;;;19.26;47.32
18201;BME280;9226;47.858;9.594;2023-10-13T06:57:42;95340.81;;;19.66;47.53
18201;BME280;9226;47.858;9.594;2023-10-13T07:00:10;95340.56;;;20.05;46.81
18201;BME280;9226;47.858;9.594;2023-10-13T07:02:46;95343.13;;;20.43;46.20
18201;BME280;9226;47.858;9.594;2023-10-13T07:05:12;95336.28;;;20.77;45.95
18201;BME280;9226;47.858;9.594;2023-10-13T07:07:40;95344.72;;;21.11;45.49
18201;BME280;9226;47.858;9.594;2023-10-13T07:10:09;95335.66;;;21.40;44.34
18201;BME280;9226;47.858;9.594;2023-10-13T07:12:37;95343.84;;;21.75;44.32
18201;BME280;9226;47.858;9.594;2023-10-13T07:15:02;95347.34;;;22.04;43.94
18201;BME280;9226;47.858;9.594;2023-10-13T07:17:36;95342.75;;;22.33;43.70
18201;BME280;9226;47.858;9.594;2023-10-13T07:20:07;95349.56;;;22.64;43.14
18201;BME280;9226;47.858;9.594;2023-10-13T07:22:51;95351.31;;;22.91;42.45
18201;BME280;9226;47.858;9.594;2023-10-13T07:25:29;95348.66;;;23.18;41.79
18201;BME280;9226;47.858;9.594;2023-10-13T07:27:59;95349.75;;;23.44;40.44
18201;BME280;9226;47.858;9.594;2023-10-13T07:30:25;95347.47;;;23.74;41.39
18201;BME280;9226;47.858;9.594;2023-10-13T07:32:55;95343.72;;;23.95;41.80
18201;BME280;9226;47.858;9.594;2023-10-13T07:35:25;95346.78;;;24.19;41.59
18201;BME280;9226;47.858;9.594;2023-10-13T07:37:52;95349.22;;;24.47;41.44
18201;BME280;9226;47.858;9.594;2023-10-13T07:40:21;95348.31;;;24.73;41.04
18201;BME280;9226;47.858;9.594;2023-10-13T07:42:50;95343.25;;;24.84;41.25
18201;BME280;9226;47.858;9.594;2023-10-13T07:45:16;95343.59;;;25.01;40.87
18201;BME280;9226;47.858;9.594;2023-10-13T07:47:50;95348.09;;;25.14;40.31
18201;BME280;9226;47.858;9.594;2023-10-13T07:50:16;95347.44;;;25.18;40.30
18201;BME280;9226;47.858;9.594;2023-10-13T07:52:50;95353.03;;;25.30;40.22
18201;BME280;9226;47.858;9.594;2023-10-13T07:55:33;95343.72;;;25.13;38.89
18201;BME280;9226;47.858;9.594;2023-10-13T07:57:59;95347.78;;;25.35;40.28
18201;BME280;9226;47.858;9.594;2023-10-13T08:00:26;95345.41;;;25.45;40.11
18201;BME280;9226;47.858;9.594;2023-10-13T08:03:14;95343.66;;;25.58;40.10
18201;BME280;9226;47.858;9.594;2023-10-13T08:05:44;95339.47;;;25.80;39.13
18201;BME280;9226;47.858;9.594;2023-10-13T08:08:29;95349.16;;;25.95;39.03
18201;BME280;9226;47.858;9.594;2023-10-13T08:13:48;95348.50;;;25.74;38.63
18201;BME280;9226;47.858;9.594;2023-10-13T08:16:22;95347.16;;;25.33;39.33
18201;BME280;9226;47.858;9.594;2023-10-13T08:18:49;95347.28;;;25.13;39.30
18201;BME280;9226;47.858;9.594;2023-10-13T08:21:15;95344.28;;;25.28;38.61
18201;BME280;9226;47.858;9.594;2023-10-13T08:23:43;95342.91;;;25.44;38.75
18201;BME280;9226;47.858;9.594;2023-10-13T08:26:25;95344.91;;;25.55;37.84
18201;BME280;9226;47.858;9.594;2023-10-13T08:29:09;95333.56;;;25.65;37.38
18201;BME280;9226;47.858;9.594;2023-10-13T08:31:47;95334.16;;;25.67;37.33
18201;BME280;9226;47.858;9.594;2023-10-13T08:34:46;95333.06;;;25.75;35.92
18201;BME280;9226;47.858;9.594;2023-10-13T08:37:13;95333.31;;;25.92;36.20
18201;BME280;9226;47.858;9.594;2023-10-13T08:39:55;95328.16;;;26.09;35.37
18201;BME280;9226;47.858;9.594;2023-10-13T08:42:37;95328.72;;;25.92;34.97
18201;BME280;9226;47.858;9.594;2023-10-13T08:45:21;95333.91;;;26.19;35.65
18201;BME280;9226;47.858;9.594;2023-10-13T08:47:55;95338.84;;;26.29;35.25
18201;BME280;9226;47.858;9.594;2023-10-13T08:50:44;95330.28;;;26.44;35.07
18201;BME280;9226;47.858;9.594;2023-10-13T08:53:21;95325.53;;;26.39;34.37
18201;BME280;9226;47.858;9.594;2023-10-13T08:56:01;95328.53;;;26.31;35.33
18201;BME280;9226;47.858;9.594;2023-10-13T08:58:46;95320.72;;;26.41;35.00
18201;BME280;9226;47.858;9.594;2023-10-13T09:01:28;95319.56;;;26.30;34.67
18201;BME280;9226;47.858;9.594;2023-10-13T09:04:17;95331.28;;;26.31;35.83
18201;BME280;9226;47.858;9.594;2023-10-13T09:07:09;95331.88;;;26.14;36.26
18201;BME280;9226;47.858;9.594;2023-10-13T09:14:43;95313.69;;;25.90;35.46
18201;BME280;9226;47.858;9.594;2023-10-13T09:17:19;95315.53;;;25.71;37.47
18201;BME280;9226;47.858;9.594;2023-10-13T09:19:48;95315.19;;;25.86;37.61
18201;BME280;9226;47.858;9.594;2023-10-13T09:22:27;95312.03;;;25.89;38.12
18201;BME280;9226;47.858;9.594;2023-10-13T09:24:57;95315.50;;;25.96;37.76
18201;BME280;9226;47.858;9.594;2023-10-13T09:27:27;95314.88;;;26.19;37.13
18201;BME280;9226;47.858;9.594;2023-10-13T09:29:57;95314.81;;;26.44;38.03
18201;BME280;9226;47.858;9.594;2023-10-13T09:32:23;95313.72;;;26.64;37.08
18201;BME280;9226;47.858;9.594;2023-10-13T09:34:48;95311.97;;;26.88;36.95
18201;BME280;9226;47.858;9.594;2023-10-13T09:37:16;95310.19;;;27.12;36.75
18201;BME280;9226;47.858;9.594;2023-10-13T09:39:46;95308.47;;;27.30;36.64
18201;BME280;9226;47.858;9.594;2023-10-13T09:42:19;95312.56;;;27.51;36.26
18201;BME280;9226;47.858;9.594;2023-10-13T09:44:48;95303.66;;;27.55;35.43
18201;BME280;9226;47.858;9.594;2023-10-13T09:47:21;95306.78;;;27.29;36.17
18201;BME280;9226;47.858;9.594;2023-10-13T09:49:54;95300.69;;;27.45;34.66
18201;BME280;9226;47.858;9.594;2023-10-13T09:52:24;95286.75;;;27.53;34.36
18201;BME280;9226;47.858;9.594;2023-10-13T09:55:05;95286.28;;;27.56;33.28
18201;BME280;9226;47.858;9.594;2023-10-13T09:57:37;95288.78;;;27.27;32.87
18201;BME280;9226;47.858;9.594;2023-10-13T10:00:15;95285.19;;;27.57;33.77
18201;BME280;9226;47.858;9.594;2023-10-13T10:03:01;95280.19;;;27.42;33.72
18201;BME280;9226;47.858;9.594;2023-10-13T10:05:57;95282.34;;;27.52;32.79
18201;BME280;9226;47.858;9.594;2023-10-13T10:08:29;95272.06;;;27.66;33.33
18201;BME280;9226;47.858;9.594;2023-10-13T10:13:53;95272.25;;;27.41;33.02
18201;BME280;9226;47.858;9.594;2023-10-13T10:16:35;95272.84;;;27.43;33.48
18201;BME280;9226;47.858;9.594;2023-10-13T10:19:03;95278.88;;;27.45;34.03
18201;BME280;9226;47.858;9.594;2023-10-13T10:21:35;95263.97;;;27.48;33.96
18201;BME280;9226;47.858;9.594;2023-10-13T10:24:01;95257.47;;;27.60;33.89
18201;BME280;9226;47.858;9.594;2023-10-13T10:26:32;95254.38;;;27.57;33.58
18201;BME280;9226;47.858;9.594;2023-10-13T10:28:58;95254.28;;;27.52;33.36
18201;BME280;9226;47.858;9.594;2023-10-13T10:31:31;95258.41;;;27.54;33.34
18201;BME280;9226;47.858;9.594;2023-10-13T10:34:11;95259.88;;;26.84;33.43
18201;BME280;9226;47.858;9.594;2023-10-13T10:36:38;95257.19;;;27.38;34.08
18201;BME280;9226;47.858;9.594;2023-10-13T10:39:08;95250.59;;;27.46;33.84
18201;BME280;9226;47.858;9.594;2023-10-13T10:41:36;95250.34;;;27.59;33.92
18201;BME280;9226;47.858;9.594;2023-10-13T10:44:14;95243.72;;;27.55;33.01
18201;BME280;9226;47.858;9.594;2023-10-13T10:47:19;95240.75;;;27.45;31.88
18201;BME280;9226;47.858;9.594;2023-10-13T10:49:56;95238.50;;;27.54;33.26
18201;BME280;9226;47.858;9.594;2023-10-13T10:52:22;95230.94;;;27.44;33.54
18201;BME280;9226;47.858;9.594;2023-10-13T10:54:58;95231.28;;;27.36;31.93
18201;BME280;9226;47.858;9.594;2023-10-13T10:57:24;95227.34;;;27.43;32.36
18201;BME280;9226;47.858;9.594;2023-10-13T10:59:54;95227.00;;;27.40;32.23
18201;BME280;9226;47.858;9.594;2023-10-13T11:02:34;95214.09;;;27.35;32.25
18201;BME280;9226;47.858;9.594;2023-10-13T11:05:00;95220.97;;;27.38;31.99
18201;BME280;9226;47.858;9.594;2023-10-13T11:07:25;95210.19;;;27.43;31.72
18201;BME280;9226;47.858;9.594;2023-10-13T11:09:53;95206.94;;;27.11;30.81
18201;BME280;9226;47.858;9.594;2023-10-13T11:12:22;95202.97;;;27.37;32.11
18201;BME280;9226;47.858;9.594;2023-10-13T11:15:05;95197.59;;;27.30;31.37
18201;BME280;9226;47.858;9.594;2023-10-13T11:17:48;95197.25;;;27.26;32.20
18201;BME280;9226;47.858;9.594;2023-10-13T11:20:18;95187.09;;;27.34;32.79
18201;BME280;9226;47.858;9.594;2023-10-13T11:22:51;95191.00;;;27.38;31.81
18201;BME280;9226;47.858;9.594;2023-10-13T11:25:25;95183.31;;;27.35;31.12
18201;BME280;9226;47.858;9.594;2023-10-13T11:28:29;95182.28;;;27.05;31.62
18201;BME280;9226;47.858;9.594;2023-10-13T11:30:57;95176.25;;;27.03;32.34
18201;BME280;9226;47.858;9.594;2023-10-13T11:33:35;95176.75;;;27.12;32.82
18201;BME280;9226;47.858;9.594;2023-10-13T11:36:01;95166.88;;;26.99;33.01
18201;BME280;9226;47.858;9.594;2023-10-13T11:38:32;95169.88;;;27.10;32.94
18201;BME280;9226;47.858;9.594;2023-10-13T11:41:16;95165.63;;;27.25;33.61
18201;BME280;9226;47.858;9.594;2023-10-13T11:43:52;95162.81;;;27.32;33.70
18201;BME280;9226;47.858;9.594;2023-10-13T11:46:19;95156.28;;;27.45;33.81
18201;BME280;9226;47.858;9.594;2023-10-13T11:49:05;95146.56;;;27.49;33.40
18201;BME280;9226;47.858;9.594;2023-10-13T11:51:45;95145.84;;;27.42;32.85
18201;BME280;9226;47.858;9.594;2023-10-13T11:54:17;95147.19;;;27.39;33.05
18201;BME280;9226;47.858;9.594;2023-10-13T11:56:43;95146.47;;;27.32;33.27
18201;BME280;9226;47.858;9.594;2023-10-13T11:59:11;95151.53;;;27.29;33.31
18201;BME280;9226;47.858;9.594;2023-10-13T12:01:52;95134.34;;;27.04;32.17
18201;BME280;9226;47.858;9.594;2023-10-13T12:04:36;95133.63;;;26.85;32.84
18201;BME280;9226;47.858;9.594;2023-10-13T12:07:17;95129.13;;;26.91;32.77
18201;BME280;9226;47.858;9.594;2023-10-13T12:09:48;95122.75;;;26.85;33.03
18201;BME280;9226;47.858;9.594;2023-10-13T12:12:20;95114.34;;;26.87;33.27
18201;BME280;9226;47.858;9.594;2023-10-13T12:14:46;95116.22;;;26.86;32.89
18201;BME280;9226;47.858;9.594;2023-10-13T12:17:22;95113.38;;;26.81;33.09
18201;BME280;9226;47.858;9.594;2023-10-13T12:20:00;95113.13;;;26.71;32.54
18201;BME280;9226;47.858;9.594;2023-10-13T12:22:29;95113.38;;;26.81;33.08
18201;BME280;9226;47.858;9.594;2023-10-13T12:25:07;95108.75;;;26.82;32.78
18201;BME280;9226;47.858;9.594;2023-10-13T12:27:55;95103.44;;;26.75;33.14
18201;BME280;9226;47.858;9.594;2023-10-13T12:30:24;95099.47;;;26.59;33.15
18201;BME280;9226;47.858;9.594;2023-10-13T12:33:14;95099.78;;;26.69;33.81
18201;BME280;9226;47.858;9.594;2023-10-13T12:35:41;95097.50;;;26.78;33.33
18201;BME280;9226;47.858;9.594;2023-10-13T12:38:23;95093.97;;;26.78;33.36
18201;BME280;9226;47.858;9.594;2023-10-13T12:41:07;95083.31;;;26.76;31.75
18201;BME280;9226;47.858;9.594;2023-10-13T12:43:51;95080.72;;;26.81;32.88
18201;BME280;9226;47.858;9.594;2023-10-13T12:46:37;95079.31;;;26.90;33.00
18201;BME280;9226;47.858;9.594;2023-10-13T12:49:20;95070.31;;;27.02;31.87
18201;BME280;9226;47.858;9.594;2023-10-13T12:52:13;95066.06;;;27.06;31.03
18201;BME280;9226;47.858;9.594;2023-10-13T12:54:48;95065.09;;;27.12;30.83
18201;BME280;9226;47.858;9.594;2023-10-13T12:57:39;95063.78;;;27.15;30.66
18201;BME280;9226;47.858;9.594;2023-10-13T13:00:10;95062.38;;;27.12;30.16
18201;BME280;9226;47.858;9.594;2023-10-13T13:02:43;95057.66;;;27.07;29.80
18201;BME280;9226;47.858;9.594;2023-10-13T13:05:09;95056.31;;;27.10;30.38
18201;BME280;9226;47.858;9.594;2023-10-13T13:07:39;95048.63;;;27.07;30.35
18201;BME280;9226;47.858;9.594;2023-10-13T13:10:18;95042.94;;;27.08;30.27
18201;BME280;9226;47.858;9.594;2023-10-13T13:12:43;95048.88;;;27.05;30.14
18201;BME280;9226;47.858;9.594;2023-10-13T13:15:09;95044.03;;;27.07;30.55
18201;BME280;9226;47.858;9.594;2023-10-13T13:17:37;95037.06;;;27.00;30.21
18201;BME280;9226;47.858;9.594;2023-10-13T13:20:05;95038.84;;;27.06;30.44
18201;BME280;9226;47.858;9.594;2023-10-13T13:22:37;95033.38;;;27.06;30.75
18201;BME280;9226;47.858;9.594;2023-10-13T13:25:03;95028.88;;;27.12;31.07
18201;BME280;9226;47.858;9.594;2023-10-13T13:27:33;95024.38;;;27.17;30.94
18201;BME280;9226;47.858;9.594;2023-10-13T13:29:58;95024.13;;;27.19;30.55
18201;BME280;9226;47.858;9.594;2023-10-13T13:32:23;95024.72;;;27.21;31.04
18201;BME280;9226;47.858;9.594;2023-10-13T13:34:52;95023.03;;;27.20;30.14
18201;BME280;9226;47.858;9.594;2023-10-13T13:37:28;95010.03;;;27.22;30.52
18201;BME280;9226;47.858;9.594;2023-10-13T13:39:54;95001.41;;;27.13;30.03
18201;BME280;9226;47.858;9.594;2023-10-13T13:42:20;95006.84;;;27.13;30.56
18201;BME280;9226;47.858;9.594;2023-10-13T13:44:45;95001.88;;;27.10;30.25
18201;BME280;9226;47.858;9.594;2023-10-13T13:47:12;94993.13;;;27.08;30.24
18201;BME280;9226;47.858;9.594;2023-10-13T13:49:41;94991.59;;;27.00;30.10
18201;BME280;9226;47.858;9.594;2023-10-13T13:52:12;94983.66;;;26.99;30.66
18201;BME280;9226;47.858;9.594;2023-10-13T13:54:43;94986.28;;;26.94;30.63
18201;BME280;9226;47.858;9.594;2023-10-13T13:57:09;94986.75;;;26.90;30.70
18201;BME280;9226;47.858;9.594;2023-10-13T13:59:34;94982.13;;;26.91;31.01